Time;durP1;ratioP1;P1;durP2;ratioP2;P2;SDS_P1;SDS_P2;PMS_P1;PMS_P2;Temp;Humidity;BMP_temperature;BMP_pressure;BME280_temperature;BME280_humidity;BME280_pressure;Samples;Min_cycle;Max_cycle;Signal;HPM_P1;HPM_P2
2023/05/17 00:00:20;;;;;;;5.47;2.47;;;9.50;99.90;;;;;;5075350;28;20468;-70
2023/05/17 00:02:47;;;;;;;3.83;1.73;;;9.30;99.90;;;;;;5075309;28;20537;-70
2023/05/17 00:05:14;;;;;;;5.40;2.03;;;9.30;99.90;;;;;;5075187;28;20562;-70
2023/05/17 00:07:41;;;;;;;5.57;2.33;;;9.20;99.90;;;;;;5074725;28;20468;-70
2023/05/17 00:10:09;;;;;;;9.47;2.03;;;9.20;99.90;;;;;;5075116;28;20794;-70
2023/05/17 00:12:37;;;;;;;7.20;2.03;;;9.20;99.90;;;;;;5074902;28;20454;-70
2023/05/17 00:15:04;;;;;;;4.67;1.93;;;9.10;99.90;;;;;;5075112;28;20512;-70
2023/05/17 00:17:31;;;;;;;3.63;2.20;;;9.00;99.90;;;;;;5074605;28;20887;-70
2023/05/17 00:19:58;;;;;;;13.13;2.73;;;9.00;99.90;;;;;;5075183;28;20465;-70
2023/05/17 00:22:25;;;;;;;5.80;2.27;;;9.00;99.90;;;;;;5075239;28;20476;-70
2023/05/17 00:24:52;;;;;;;5.17;2.27;;;9.00;99.90;;;;;;5074888;28;20490;-69
2023/05/17 00:27:19;;;;;;;4.40;2.10;;;8.90;99.90;;;;;;5074986;28;20454;-70
2023/05/17 00:29:47;;;;;;;7.77;2.83;;;8.80;99.90;;;;;;5074738;28;21033;-70
2023/05/17 00:32:14;;;;;;;8.53;2.67;;;8.80;99.90;;;;;;5074697;28;20450;-70
2023/05/17 00:34:40;;;;;;;6.60;3.37;;;8.90;99.90;;;;;;5074858;28;20450;-69
2023/05/17 00:37:07;;;;;;;8.97;2.90;;;8.80;99.90;;;;;;5074571;28;20464;-69
2023/05/17 00:39:34;;;;;;;6.17;3.00;;;8.80;99.90;;;;;;5074293;28;20500;-70
2023/05/17 00:42:01;;;;;;;7.73;2.90;;;8.80;99.90;;;;;;5074468;28;20458;-69
2023/05/17 00:44:28;;;;;;;10.00;3.63;;;8.80;99.90;;;;;;5074387;28;20488;-69
2023/05/17 00:46:58;;;;;;;11.40;2.80;;;8.70;99.90;;;;;;5074634;28;20480;-69
2023/05/17 00:49:25;;;;;;;7.70;3.20;;;8.70;99.90;;;;;;5074471;28;20458;-69
2023/05/17 00:51:53;;;;;;;7.90;3.20;;;8.70;99.90;;;;;;5074075;28;20545;-70
2023/05/17 00:54:20;;;;;;;4.27;2.60;;;8.70;99.90;;;;;;5074626;28;20533;-70
2023/05/17 00:56:47;;;;;;;6.33;3.17;;;8.70;99.90;;;;;;5074217;28;20468;-70
2023/05/17 00:59:15;;;;;;;7.53;2.53;;;8.60;99.90;;;;;;5075018;28;20545;-70
2023/05/17 01:01:43;;;;;;;8.00;3.33;;;8.60;99.90;;;;;;5074607;28;20550;-70
2023/05/17 01:04:12;;;;;;;10.77;3.03;;;8.60;99.90;;;;;;5074120;28;20613;-70
2023/05/17 01:06:38;;;;;;;8.03;3.13;;;8.60;99.90;;;;;;5074309;28;20461;-69
2023/05/17 01:09:07;;;;;;;7.40;3.03;;;8.60;99.90;;;;;;5073688;28;20458;-70
2023/05/17 01:11:44;;;;;;;7.47;3.80;;;8.50;99.90;;;;;;5074419;28;20927;-70
2023/05/17 01:14:26;;;;;;;8.07;3.00;;;8.50;99.90;;;;;;5074179;28;20525;-70
2023/05/17 01:16:57;;;;;;;7.50;3.00;;;8.50;99.90;;;;;;5073892;28;20529;-70
2023/05/17 01:19:57;;;;;;;8.50;3.63;;;8.50;99.90;;;;;;5074301;28;20529;-70
2023/05/17 01:22:36;;;;;;;7.20;3.50;;;8.40;99.90;;;;;;5074428;28;20442;-70
2023/05/17 01:25:19;;;;;;;6.83;3.20;;;8.50;99.90;;;;;;5074042;28;20789;-70
2023/05/17 01:27:50;;;;;;;7.30;3.30;;;8.50;99.90;;;;;;5074439;28;20447;-70
2023/05/17 01:30:20;;;;;;;9.83;3.80;;;8.50;99.90;;;;;;5074114;28;20453;-70
2023/05/17 01:32:47;;;;;;;8.00;3.27;;;8.50;99.90;;;;;;5074149;28;20458;-70
2023/05/17 01:35:14;;;;;;;11.80;3.57;;;8.50;99.90;;;;;;5074060;28;20458;-70
2023/05/17 01:37:41;;;;;;;7.43;3.40;;;8.40;99.90;;;;;;5073984;28;20541;-70
2023/05/17 01:40:10;;;;;;;9.87;3.40;;;8.40;99.90;;;;;;5073565;28;20481;-70
2023/05/17 01:42:39;;;;;;;7.70;3.13;;;8.40;99.90;;;;;;5073866;28;20454;-70
2023/05/17 01:45:16;;;;;;;11.53;3.80;;;8.30;99.90;;;;;;5074491;28;20554;-69
2023/05/17 01:47:50;;;;;;;5.57;3.40;;;8.40;99.90;;;;;;5074335;28;20749;-69
2023/05/17 01:50:22;;;;;;;9.70;3.83;;;8.40;99.90;;;;;;5073812;28;20456;-70
2023/05/17 01:52:53;;;;;;;6.33;2.97;;;8.40;99.90;;;;;;5074076;28;20427;-70
2023/05/17 01:55:26;;;;;;;8.50;3.87;;;8.40;99.90;;;;;;5074667;28;20434;-69
2023/05/17 01:57:55;;;;;;;9.23;3.13;;;8.30;99.90;;;;;;5078123;28;20466;-70
2023/05/17 02:00:25;;;;;;;13.23;4.37;;;8.30;99.90;;;;;;5077784;28;20462;-69
2023/05/17 02:02:52;;;;;;;9.20;4.43;;;8.30;99.90;;;;;;5077402;28;20454;-70
2023/05/17 02:05:19;;;;;;;11.93;4.00;;;8.30;99.90;;;;;;5077596;28;20492;-69
2023/05/17 02:07:46;;;;;;;10.77;4.20;;;8.30;99.90;;;;;;5077663;28;20759;-69
2023/05/17 02:10:13;;;;;;;9.30;4.37;;;8.30;99.90;;;;;;5077675;28;20464;-69
2023/05/17 02:12:40;;;;;;;8.50;3.90;;;8.30;99.90;;;;;;5077387;28;20454;-70
2023/05/17 02:15:10;;;;;;;12.20;4.67;;;8.30;99.90;;;;;;5077294;28;20454;-70
2023/05/17 02:17:39;;;;;;;6.93;3.70;;;8.30;99.90;;;;;;5077288;28;20469;-70
2023/05/17 02:20:07;;;;;;;10.83;4.27;;;8.30;99.90;;;;;;5076975;28;20446;-70
2023/05/17 02:22:34;;;;;;;12.57;3.97;;;8.40;99.90;;;;;;5076702;28;20472;-70
2023/05/17 02:25:01;;;;;;;11.30;4.00;;;8.40;99.90;;;;;;5076735;28;20485;-70
2023/05/17 02:27:28;;;;;;;10.77;3.73;;;8.40;99.90;;;;;;5077135;28;20548;-69
2023/05/17 02:29:55;;;;;;;8.27;3.10;;;8.40;99.90;;;;;;5077314;28;20515;-69
2023/05/17 02:32:21;;;;;;;9.40;4.10;;;8.40;99.90;;;;;;5076744;28;20549;-69
2023/05/17 02:34:50;;;;;;;8.00;3.87;;;8.40;99.90;;;;;;5076871;28;20967;-69
2023/05/17 02:37:16;;;;;;;6.70;4.40;;;8.40;99.90;;;;;;5077002;28;20454;-69
2023/05/17 02:39:43;;;;;;;8.70;3.20;;;8.40;99.90;;;;;;5076691;28;20478;-70
2023/05/17 02:42:10;;;;;;;9.47;4.40;;;8.40;99.90;;;;;;5076954;28;20489;-69
2023/05/17 02:44:37;;;;;;;11.50;4.10;;;8.40;99.90;;;;;;5076615;28;20474;-70
2023/05/17 02:47:04;;;;;;;10.63;4.33;;;8.40;99.90;;;;;;5076490;28;20469;-70
2023/05/17 02:49:31;;;;;;;10.30;4.30;;;8.40;99.90;;;;;;5076282;28;20462;-70
2023/05/17 02:52:01;;;;;;;11.67;4.07;;;8.50;99.90;;;;;;5076724;28;20820;-70
2023/05/17 02:54:27;;;;;;;12.77;4.90;;;8.40;99.90;;;;;;5076248;28;20537;-70
2023/05/17 02:56:54;;;;;;;10.63;3.80;;;8.50;99.90;;;;;;5076409;28;20462;-70
2023/05/17 02:59:21;;;;;;;8.27;4.03;;;8.50;99.90;;;;;;5076578;28;20805;-70
2023/05/17 03:01:49;;;;;;;11.20;4.40;;;8.50;99.90;;;;;;5076309;28;20454;-70
2023/05/17 03:04:16;;;;;;;16.33;4.90;;;8.50;99.90;;;;;;5076577;28;20478;-70
2023/05/17 03:06:43;;;;;;;15.50;5.00;;;8.50;99.90;;;;;;5075520;28;20454;-70
2023/05/17 03:09:11;;;;;;;10.83;4.53;;;8.60;99.90;;;;;;5076267;28;20477;-70
2023/05/17 03:11:38;;;;;;;11.73;4.80;;;8.50;99.90;;;;;;5076444;28;20465;-70
2023/05/17 03:14:04;;;;;;;12.87;3.97;;;8.50;99.90;;;;;;5076001;28;20484;-70
2023/05/17 03:16:31;;;;;;;13.67;5.10;;;8.50;99.90;;;;;;5076019;28;20465;-70
2023/05/17 03:18:58;;;;;;;15.67;5.03;;;8.60;99.90;;;;;;5076188;28;20454;-70
2023/05/17 03:21:25;;;;;;;7.20;3.50;;;8.60;99.90;;;;;;5076267;28;20457;-70
2023/05/17 03:23:52;;;;;;;11.53;3.93;;;8.60;99.90;;;;;;5076201;28;20486;-70
2023/05/17 03:26:20;;;;;;;12.80;4.73;;;8.60;99.90;;;;;;5076026;28;20795;-70
2023/05/17 03:28:47;;;;;;;11.90;4.27;;;8.60;99.90;;;;;;5075788;28;20923;-70
2023/05/17 03:31:13;;;;;;;12.07;4.40;;;8.60;99.90;;;;;;5075975;28;20458;-70
2023/05/17 03:33:40;;;;;;;12.23;4.70;;;8.60;99.90;;;;;;5076197;28;20755;-69
2023/05/17 03:36:07;;;;;;;10.50;4.80;;;8.60;99.90;;;;;;5075921;28;20790;-70
2023/05/17 03:38:34;;;;;;;10.70;3.83;;;8.60;99.90;;;;;;5075557;28;20496;-70
2023/05/17 03:41:01;;;;;;;9.40;4.03;;;8.60;99.90;;;;;;5075536;28;20921;-69
2023/05/17 03:43:29;;;;;;;10.87;4.17;;;8.60;99.90;;;;;;5075669;28;20469;-70
2023/05/17 03:45:56;;;;;;;6.00;3.87;;;8.60;99.90;;;;;;5075427;28;20572;-70
2023/05/17 03:48:23;;;;;;;10.83;4.57;;;8.60;99.90;;;;;;5075548;28;20454;-69
2023/05/17 03:50:50;;;;;;;7.67;3.77;;;8.60;99.90;;;;;;5075779;28;20813;-70
2023/05/17 03:53:17;;;;;;;8.23;4.10;;;8.60;99.90;;;;;;5075603;28;20486;-70
2023/05/17 03:55:44;;;;;;;10.37;4.57;;;8.70;99.90;;;;;;5075663;28;20450;-70
2023/05/17 03:58:10;;;;;;;11.20;4.40;;;8.70;99.90;;;;;;5075650;28;20473;-70
2023/05/17 04:00:39;;;;;;;8.60;4.57;;;8.60;99.90;;;;;;5075459;28;20903;-70
2023/05/17 04:03:05;;;;;;;9.03;3.83;;;8.60;99.90;;;;;;5075200;28;20545;-69
2023/05/17 04:05:32;;;;;;;12.03;4.40;;;8.60;99.90;;;;;;5075439;28;20478;-70
2023/05/17 04:08:00;;;;;;;12.60;3.70;;;8.60;99.90;;;;;;5075460;28;20851;-69
2023/05/17 04:10:27;;;;;;;9.43;5.00;;;8.50;99.90;;;;;;5074965;28;20934;-69
2023/05/17 04:12:53;;;;;;;15.23;4.37;;;8.50;99.90;;;;;;5075142;28;20917;-70
2023/05/17 04:15:20;;;;;;;14.23;4.43;;;8.50;99.90;;;;;;5074702;28;20455;-69
2023/05/17 04:17:48;;;;;;;8.53;4.30;;;8.50;99.90;;;;;;5074887;28;20454;-69
2023/05/17 04:20:15;;;;;;;10.53;4.90;;;8.50;99.90;;;;;;5075438;28;20855;-69
2023/05/17 04:22:42;;;;;;;11.00;4.77;;;8.50;99.90;;;;;;5074887;28;20498;-70
2023/05/17 04:25:10;;;;;;;14.53;5.17;;;8.50;99.90;;;;;;5074827;28;20479;-69
2023/05/17 04:27:36;;;;;;;13.17;4.53;;;8.50;99.90;;;;;;5074587;28;20473;-69
2023/05/17 04:30:04;;;;;;;15.53;4.53;;;8.50;99.90;;;;;;5074839;28;20519;-69
2023/05/17 04:32:32;;;;;;;19.93;6.53;;;8.50;99.90;;;;;;5074913;28;20464;-70
2023/05/17 04:35:01;;;;;;;17.40;5.03;;;8.50;99.90;;;;;;5074750;28;20649;-69
2023/05/17 04:37:27;;;;;;;10.97;5.40;;;8.60;99.90;;;;;;5074840;28;20466;-69
2023/05/17 04:39:54;;;;;;;13.97;4.80;;;8.60;99.90;;;;;;5074393;28;20568;-69
2023/05/17 04:42:21;;;;;;;9.97;5.00;;;8.60;99.90;;;;;;5074399;28;20454;-70
2023/05/17 04:44:48;;;;;;;11.33;5.30;;;8.60;99.90;;;;;;5074647;28;20478;-69
2023/05/17 04:47:15;;;;;;;11.57;4.57;;;8.70;99.90;;;;;;5074287;28;20473;-69
2023/05/17 04:49:42;;;;;;;12.00;4.93;;;8.70;99.90;;;;;;5074955;28;20549;-69
2023/05/17 04:52:10;;;;;;;13.13;4.63;;;8.70;99.90;;;;;;5074783;28;20947;-69
2023/05/17 04:54:37;;;;;;;13.20;4.60;;;8.70;99.90;;;;;;5074825;28;20532;-70
2023/05/17 04:57:04;;;;;;;9.10;5.23;;;8.70;99.90;;;;;;5074598;28;20454;-70
2023/05/17 04:59:30;;;;;;;15.60;6.57;;;8.80;99.90;;;;;;5074314;28;20464;-69
2023/05/17 05:01:57;;;;;;;16.97;4.80;;;8.70;99.90;;;;;;5074441;28;20549;-69
2023/05/17 05:04:24;;;;;;;8.73;4.60;;;8.70;99.90;;;;;;5074525;28;20838;-70
2023/05/17 05:06:51;;;;;;;24.43;13.53;;;8.70;99.90;;;;;;5074157;28;20484;-70
2023/05/17 05:09:19;;;;;;;9.90;4.43;;;8.80;99.90;;;;;;5074531;28;20458;-70
2023/05/17 05:11:46;;;;;;;14.10;4.53;;;8.80;99.90;;;;;;5074713;28;20790;-70
2023/05/17 05:14:13;;;;;;;10.00;4.20;;;8.90;99.90;;;;;;5075052;28;20477;-70
2023/05/17 05:16:40;;;;;;;16.87;5.07;;;8.90;99.90;;;;;;5074458;28;20454;-70
2023/05/17 05:19:07;;;;;;;15.70;4.67;;;8.90;99.90;;;;;;5074344;28;20545;-70
2023/05/17 05:21:34;;;;;;;9.00;4.53;;;8.90;99.90;;;;;;5073997;28;20555;-70
2023/05/17 05:24:03;;;;;;;15.60;3.60;;;9.00;99.90;;;;;;5074437;28;20454;-69
2023/05/17 05:26:31;;;;;;;21.37;6.93;;;9.00;99.90;;;;;;5073985;28;20996;-69
2023/05/17 05:28:58;;;;;;;13.30;4.20;;;9.10;99.90;;;;;;5074075;28;20462;-69
2023/05/17 05:31:25;;;;;;;9.60;4.10;;;9.20;99.90;;;;;;5076885;28;20468;-69
2023/05/17 05:33:52;;;;;;;9.57;3.93;;;9.20;99.90;;;;;;5078675;28;20458;-69
2023/05/17 05:36:19;;;;;;;9.07;4.23;;;9.20;99.90;;;;;;5078475;28;20560;-69
2023/05/17 05:38:46;;;;;;;9.43;4.60;;;9.30;99.90;;;;;;5078155;28;20521;-69
2023/05/17 05:41:13;;;;;;;9.00;4.17;;;9.40;99.90;;;;;;5078256;28;20470;-69
2023/05/17 05:43:41;;;;;;;13.40;4.47;;;9.50;99.90;;;;;;5077841;28;20458;-70
2023/05/17 05:46:08;;;;;;;15.30;4.97;;;9.50;99.90;;;;;;5078436;28;20478;-70
2023/05/17 05:48:38;;;;;;;7.47;4.03;;;9.40;99.90;;;;;;5078289;28;20855;-70
2023/05/17 05:51:04;;;;;;;11.97;4.00;;;9.40;99.90;;;;;;5078232;28;20477;-70
2023/05/17 05:53:31;;;;;;;15.70;4.83;;;9.40;99.90;;;;;;5078047;28;20527;-69
2023/05/17 05:55:58;;;;;;;11.20;4.77;;;9.30;99.90;;;;;;5077571;28;20450;-69
2023/05/17 05:58:25;;;;;;;12.93;3.40;;;9.30;99.90;;;;;;5077603;28;20472;-69
2023/05/17 06:00:53;;;;;;;10.27;3.60;;;9.30;99.90;;;;;;5077836;28;20786;-69
2023/05/17 06:03:20;;;;;;;14.73;4.77;;;9.50;99.90;;;;;;5077842;28;20553;-69
2023/05/17 06:05:47;;;;;;;12.13;5.10;;;9.50;99.90;;;;;;5077633;28;20478;-69
2023/05/17 06:08:14;;;;;;;5.90;3.30;;;9.70;99.90;;;;;;5077411;28;20454;-69
2023/05/17 06:10:41;;;;;;;9.30;4.67;;;9.70;99.90;;;;;;5077450;28;20454;-70
2023/05/17 06:13:08;;;;;;;8.60;3.50;;;9.80;99.90;;;;;;5077376;28;20454;-69
2023/05/17 06:15:35;;;;;;;10.93;3.50;;;10.00;99.90;;;;;;5077680;28;20446;-70
2023/05/17 06:18:04;;;;;;;8.73;3.33;;;10.00;99.90;;;;;;5077758;28;20910;-69
2023/05/17 06:20:30;;;;;;;7.20;2.80;;;9.90;99.90;;;;;;5077738;28;20464;-69
2023/05/17 06:22:57;;;;;;;9.10;3.47;;;9.70;99.90;;;;;;5077408;28;20944;-69
2023/05/17 06:25:24;;;;;;;9.30;2.90;;;9.60;99.90;;;;;;5077503;28;20488;-69
2023/05/17 06:27:51;;;;;;;9.00;2.83;;;9.70;99.90;;;;;;5076835;28;20994;-68
2023/05/17 06:30:18;;;;;;;10.80;2.67;;;9.80;99.90;;;;;;5077017;28;20460;-69
2023/05/17 06:32:44;;;;;;;6.07;3.00;;;9.90;99.90;;;;;;5076988;28;20808;-68
2023/05/17 06:35:13;;;;;;;8.27;2.80;;;10.00;99.90;;;;;;5077363;28;20454;-69
2023/05/17 06:37:40;;;;;;;8.00;2.97;;;10.10;99.90;;;;;;5077030;28;20894;-69
2023/05/17 06:40:09;;;;;;;10.97;2.57;;;10.20;99.90;;;;;;5077137;28;20831;-69
2023/05/17 06:42:36;;;;;;;12.30;2.77;;;10.20;99.90;;;;;;5076785;28;20458;-68
2023/05/17 06:45:03;;;;;;;4.30;2.00;;;10.20;99.90;;;;;;5076897;28;20537;-69
2023/05/17 06:47:30;;;;;;;9.33;2.77;;;10.10;99.90;;;;;;5076699;28;20553;-69
2023/05/17 06:49:57;;;;;;;9.20;2.30;;;10.10;99.90;;;;;;5076861;28;20462;-67
2023/05/17 06:52:25;;;;;;;6.40;2.20;;;10.10;99.90;;;;;;5076785;28;20508;-68
2023/05/17 06:54:52;;;;;;;10.03;3.30;;;10.10;99.90;;;;;;5077125;28;20458;-68
2023/05/17 06:57:19;;;;;;;12.73;2.40;;;10.20;99.90;;;;;;5076869;28;20809;-68
2023/05/17 06:59:45;;;;;;;9.03;3.33;;;10.20;99.90;;;;;;5076743;28;20557;-68
2023/05/17 07:02:12;;;;;;;10.67;3.20;;;10.20;99.90;;;;;;5076748;28;20533;-68
2023/05/17 07:04:39;;;;;;;7.60;2.10;;;10.20;99.90;;;;;;5076324;28;20524;-69
2023/05/17 07:07:06;;;;;;;8.50;3.20;;;10.10;99.90;;;;;;5076544;28;20781;-68
2023/05/17 07:09:36;;;;;;;11.20;3.30;;;10.20;99.90;;;;;;5076507;28;20485;-68
2023/05/17 07:12:03;;;;;;;10.63;3.20;;;10.20;99.90;;;;;;5076492;28;20501;-69
2023/05/17 07:14:29;;;;;;;5.93;2.10;;;10.30;99.90;;;;;;5076461;28;20457;-68
2023/05/17 07:16:56;;;;;;;8.10;2.50;;;10.40;99.90;;;;;;5076199;28;20771;-68
2023/05/17 07:19:25;;;;;;;5.60;2.07;;;10.30;99.90;;;;;;5076236;28;20458;-68
2023/05/17 07:21:52;;;;;;;9.43;3.30;;;10.30;99.90;;;;;;5076009;28;20459;-68
2023/05/17 07:24:18;;;;;;;10.07;3.50;;;10.30;99.90;;;;;;5076190;28;20464;-68
2023/05/17 07:26:46;;;;;;;8.90;2.70;;;10.30;99.90;;;;;;5076365;28;20488;-68
2023/05/17 07:29:13;;;;;;;9.30;2.77;;;10.40;99.90;;;;;;5076116;28;20477;-68
2023/05/17 07:31:40;;;;;;;11.33;2.70;;;10.40;99.90;;;;;;5075737;28;20922;-68
2023/05/17 07:34:07;;;;;;;5.63;2.53;;;10.50;99.90;;;;;;5075952;28;20460;-68
2023/05/17 07:36:34;;;;;;;8.93;2.87;;;10.60;99.90;;;;;;5076157;28;20544;-68
2023/05/17 07:39:01;;;;;;;6.23;2.40;;;10.70;99.90;;;;;;5075711;28;20482;-68
2023/05/17 07:41:27;;;;;;;9.20;2.77;;;10.80;99.90;;;;;;5076145;28;20480;-68
2023/05/17 07:43:56;;;;;;;9.03;2.77;;;11.00;99.90;;;;;;5075684;28;20536;-69
2023/05/17 07:46:22;;;;;;;9.90;3.00;;;11.10;99.90;;;;;;5075239;28;20993;-68
2023/05/17 07:48:49;;;;;;;5.07;2.17;;;11.30;99.90;;;;;;5075437;28;20458;-68
2023/05/17 07:51:16;;;;;;;9.20;2.20;;;11.30;99.90;;;;;;5075156;28;20458;-68
2023/05/17 07:53:43;;;;;;;13.90;3.30;;;10.90;99.90;;;;;;5074764;28;20531;-68
2023/05/17 07:56:10;;;;;;;6.50;2.50;;;10.50;99.90;;;;;;5075213;28;20465;-68
2023/05/17 07:58:37;;;;;;;8.30;2.40;;;10.40;99.90;;;;;;5075307;28;20557;-68
2023/05/17 08:01:05;;;;;;;9.53;2.87;;;10.40;99.90;;;;;;5075412;28;20753;-68
2023/05/17 08:03:32;;;;;;;6.20;2.10;;;10.40;99.90;;;;;;5075234;28;20541;-68
2023/05/17 08:05:59;;;;;;;9.60;2.67;;;10.50;99.90;;;;;;5074957;28;20569;-68
2023/05/17 08:08:25;;;;;;;6.80;2.17;;;10.60;99.90;;;;;;5075260;28;20781;-68
2023/05/17 08:10:52;;;;;;;10.23;2.63;;;10.70;99.90;;;;;;5074807;28;20454;-68
2023/05/17 08:13:19;;;;;;;7.80;1.93;;;10.70;99.90;;;;;;5075068;28;20488;-68
2023/05/17 08:15:46;;;;;;;9.03;2.67;;;10.80;99.90;;;;;;5074871;28;20463;-68
2023/05/17 08:18:14;;;;;;;6.87;2.47;;;10.80;99.90;;;;;;5075272;28;20523;-68
2023/05/17 08:20:42;;;;;;;6.47;1.90;;;10.90;99.90;;;;;;5074847;28;20553;-68
2023/05/17 08:23:08;;;;;;;7.00;2.10;;;10.90;99.90;;;;;;5075110;28;20515;-67
2023/05/17 08:25:35;;;;;;;7.67;1.80;;;11.00;99.90;;;;;;5075268;28;20549;-67
2023/05/17 08:28:02;;;;;;;9.90;2.23;;;11.10;99.90;;;;;;5074817;28;20464;-67
2023/05/17 08:30:29;;;;;;;8.73;3.53;;;11.10;99.90;;;;;;5074776;28;20497;-68
2023/05/17 08:32:56;;;;;;;6.47;2.23;;;11.20;99.90;;;;;;5074303;28;20464;-67
2023/05/17 08:35:24;;;;;;;6.80;2.60;;;11.20;99.90;;;;;;5075009;28;20569;-68
2023/05/17 08:37:51;;;;;;;13.23;2.20;;;11.40;99.90;;;;;;5074494;28;20458;-68
2023/05/17 08:40:21;;;;;;;10.00;2.70;;;11.50;99.90;;;;;;5074471;28;20573;-70
2023/05/17 08:42:48;;;;;;;6.73;2.20;;;11.50;99.90;;;;;;5073877;28;20454;-68
2023/05/17 08:45:16;;;;;;;10.07;2.43;;;11.20;99.90;;;;;;5074288;28;20458;-68
2023/05/17 08:47:45;;;;;;;9.03;2.10;;;11.10;99.90;;;;;;5074414;28;20833;-69
2023/05/17 08:50:13;;;;;;;6.23;2.43;;;11.20;99.90;;;;;;5074769;28;20454;-68
2023/05/17 08:52:44;;;;;;;12.03;2.40;;;11.20;99.90;;;;;;5074206;28;20465;-68
2023/05/17 08:55:15;;;;;;;11.53;4.30;;;11.40;99.90;;;;;;5074473;28;20446;-68
2023/05/17 08:57:42;;;;;;;9.00;2.20;;;11.50;99.90;;;;;;5074847;28;20851;-67
2023/05/17 09:00:11;;;;;;;7.73;3.10;;;11.60;99.90;;;;;;5074218;28;20453;-69
2023/05/17 09:02:38;;;;;;;10.10;2.57;;;11.60;99.90;;;;;;5074020;28;20911;-68
2023/05/17 09:05:07;;;;;;;7.33;1.93;;;11.60;99.90;;;;;;5074103;28;20564;-68
2023/05/17 09:07:34;;;;;;;6.60;2.27;;;11.60;99.90;;;;;;5073936;28;20492;-69
2023/05/17 09:10:04;;;;;;;4.60;1.80;;;11.70;99.90;;;;;;5074072;28;20519;-68
2023/05/17 09:12:33;;;;;;;6.50;2.40;;;11.70;99.90;;;;;;5074130;28;20523;-67
2023/05/17 09:15:13;;;;;;;10.80;2.37;;;11.80;99.90;;;;;;5073883;28;20465;-68
2023/05/17 09:17:41;;;;;;;11.00;2.30;;;11.90;99.90;;;;;;5073902;28;20886;-68
2023/05/17 09:20:08;;;;;;;9.10;2.47;;;12.00;99.90;;;;;;5074432;28;20450;-68
2023/05/17 09:22:37;;;;;;;7.47;2.20;;;12.00;99.90;;;;;;5074260;28;20454;-68
2023/05/17 09:25:06;;;;;;;8.67;2.30;;;12.10;99.90;;;;;;5073590;28;20523;-68
2023/05/17 09:27:33;;;;;;;6.80;1.90;;;12.00;99.90;;;;;;5074189;28;20478;-67
2023/05/17 09:30:00;;;;;;;8.97;2.40;;;11.80;99.90;;;;;;5074102;28;20458;-67
2023/05/17 09:32:27;;;;;;;6.20;1.87;;;11.70;99.90;;;;;;5074093;28;20792;-68
2023/05/17 09:34:56;;;;;;;12.93;1.97;;;11.70;99.90;;;;;;5073968;28;20462;-68
2023/05/17 09:37:24;;;;;;;7.67;2.23;;;11.80;99.90;;;;;;5074158;28;20545;-68
2023/05/17 09:39:52;;;;;;;11.37;2.63;;;11.90;99.90;;;;;;5073497;28;20490;-68
2023/05/17 09:42:26;;;;;;;10.23;2.40;;;11.80;99.90;;;;;;5074053;28;20541;-68
2023/05/17 09:44:56;;;;;;;9.43;2.37;;;11.70;99.90;;;;;;5074107;28;20442;-68
2023/05/17 09:47:27;;;;;;;7.90;2.07;;;11.90;99.90;;;;;;5073698;28;20478;-68
2023/05/17 09:49:55;;;;;;;7.80;2.07;;;11.90;99.90;;;;;;5074189;28;20455;-67
2023/05/17 09:52:23;;;;;;;13.27;2.33;;;12.00;99.90;;;;;;5073706;28;20476;-67
2023/05/17 09:54:54;;;;;;;6.53;2.13;;;12.10;99.90;;;;;;5073692;28;20527;-67
2023/05/17 09:57:22;;;;;;;5.60;2.07;;;12.20;99.90;;;;;;5073440;28;20451;-69
2023/05/17 09:59:50;;;;;;;13.97;2.80;;;12.20;99.90;;;;;;5073915;28;20468;-68
2023/05/17 10:02:26;;;;;;;6.97;2.27;;;12.30;99.20;;;;;;5074366;28;20468;-69
2023/05/17 10:04:57;;;;;;;5.80;2.00;;;12.40;98.30;;;;;;5073807;28;20456;-68
2023/05/17 10:07:26;;;;;;;8.00;2.73;;;12.40;99.20;;;;;;5073754;28;20485;-68
2023/05/17 10:09:54;;;;;;;7.90;2.60;;;12.50;98.30;;;;;;5073488;28;20464;-67
2023/05/17 10:12:24;;;;;;;8.00;2.10;;;12.60;97.00;;;;;;5073527;28;20796;-67
2023/05/17 10:14:54;;;;;;;9.00;2.10;;;12.60;96.40;;;;;;5073236;28;20537;-67
2023/05/17 10:17:22;;;;;;;6.03;1.73;;;12.70;96.10;;;;;;5075606;28;20485;-68
2023/05/17 10:19:50;;;;;;;12.00;2.10;;;12.80;95.70;;;;;;5077112;28;20458;-68
2023/05/17 10:22:18;;;;;;;4.93;3.23;;;12.90;94.30;;;;;;5076821;28;20915;-68
2023/05/17 10:24:46;;;;;;;8.93;1.90;;;13.00;94.60;;;;;;5077359;28;20481;-68
2023/05/17 10:27:13;;;;;;;5.93;2.00;;;13.10;94.30;;;;;;5076895;28;20481;-68
2023/05/17 10:29:43;;;;;;;12.20;1.70;;;13.20;91.40;;;;;;5077137;28;20458;-68
2023/05/17 10:32:13;;;;;;;8.03;1.87;;;13.10;89.90;;;;;;5077294;28;20466;-68
2023/05/17 10:34:40;;;;;;;7.20;1.83;;;12.80;88.00;;;;;;5076820;28;20460;-68
2023/05/17 10:37:07;;;;;;;9.10;2.30;;;12.80;88.50;;;;;;5077265;28;20450;-68
2023/05/17 10:39:37;;;;;;;6.27;1.73;;;12.90;85.10;;;;;;5076498;28;20482;-68
2023/05/17 10:42:07;;;;;;;7.47;1.90;;;13.00;86.30;;;;;;5077007;28;20454;-68
2023/05/17 10:44:36;;;;;;;9.33;2.23;;;13.00;85.80;;;;;;5077062;28;20507;-67
2023/05/17 10:47:05;;;;;;;8.20;2.60;;;13.10;83.20;;;;;;5076867;28;20862;-68
2023/05/17 10:49:33;;;;;;;11.27;2.87;;;13.20;79.10;;;;;;5076354;28;20504;-69
2023/05/17 10:52:11;;;;;;;4.80;2.10;;;13.20;81.60;;;;;;5076282;28;20554;-68
2023/05/17 10:54:40;;;;;;;5.23;2.30;;;13.20;81.50;;;;;;5076100;28;20441;-68
2023/05/17 10:57:08;;;;;;;12.73;3.40;;;13.30;82.40;;;;;;5076229;28;20760;-69
2023/05/17 10:59:35;;;;;;;5.50;2.20;;;13.40;81.00;;;;;;5076518;28;20458;-69
2023/05/17 11:02:05;;;;;;;6.20;1.67;;;13.50;82.00;;;;;;5076558;28;20486;-68
2023/05/17 11:04:33;;;;;;;7.60;2.30;;;13.50;78.90;;;;;;5076276;28;20464;-67
2023/05/17 11:07:23;;;;;;;11.57;2.33;;;13.60;79.30;;;;;;5076563;28;20619;-68
2023/05/17 11:09:53;;;;;;;10.60;1.70;;;13.80;79.00;;;;;;5076492;28;20530;-68
2023/05/17 11:12:32;;;;;;;12.10;2.27;;;14.00;78.90;;;;;;5076157;28;20454;-68
2023/05/17 11:15:00;;;;;;;10.67;2.70;;;14.10;73.90;;;;;;5076548;28;20439;-67
2023/05/17 11:17:35;;;;;;;8.20;2.53;;;14.40;74.90;;;;;;5076420;28;20504;-67
2023/05/17 11:20:05;;;;;;;7.97;2.00;;;15.50;73.80;;;;;;5076414;28;20737;-68
2023/05/17 11:22:37;;;;;;;9.23;2.53;;;16.80;67.00;;;;;;5076326;28;20535;-67
2023/05/17 11:25:08;;;;;;;6.13;1.50;;;17.60;55.40;;;;;;5076550;28;20438;-69
2023/05/17 11:27:37;;;;;;;3.90;1.50;;;18.60;50.80;;;;;;5075332;28;20946;-68
2023/05/17 11:30:18;;;;;;;3.80;1.50;;;19.70;46.60;;;;;;5075650;28;20468;-68
2023/05/17 11:32:50;;;;;;;8.93;2.47;;;20.00;41.10;;;;;;5076169;28;20541;-68
2023/05/17 11:35:18;;;;;;;5.23;1.90;;;20.80;39.30;;;;;;5076076;28;20438;-68
2023/05/17 11:37:45;;;;;;;5.63;1.70;;;21.50;35.00;;;;;;5076425;28;20927;-68
2023/05/17 11:40:13;;;;;;;6.37;1.73;;;21.00;32.60;;;;;;5075444;28;20577;-68
2023/05/17 11:42:40;;;;;;;5.03;2.20;;;21.30;34.50;;;;;;5075832;28;20458;-68
2023/05/17 11:45:08;;;;;;;8.17;2.10;;;22.10;31.20;;;;;;5075524;28;20469;-68
2023/05/17 11:47:39;;;;;;;5.30;2.03;;;22.70;28.50;;;;;;5075364;28;20482;-68
2023/05/17 11:50:08;;;;;;;5.33;1.90;;;22.20;28.20;;;;;;5075673;28;20442;-68
2023/05/17 11:52:35;;;;;;;5.53;1.90;;;22.70;26.90;;;;;;5075731;28;20548;-68
2023/05/17 11:55:03;;;;;;;6.07;1.60;;;23.30;26.10;;;;;;5075152;28;20902;-68
2023/05/17 11:57:31;;;;;;;8.20;2.30;;;23.30;24.00;;;;;;5075433;28;20485;-68
2023/05/17 12:00:02;;;;;;;6.70;1.50;;;22.50;24.40;;;;;;5075541;28;20545;-68
2023/05/17 12:02:31;;;;;;;9.20;1.87;;;22.80;24.50;;;;;;5075148;28;20469;-68
2023/05/17 12:04:58;;;;;;;12.20;2.23;;;22.60;23.40;;;;;;5075041;28;20460;-68
2023/05/17 12:07:26;;;;;;;6.43;2.07;;;22.10;25.30;;;;;;5075124;28;20482;-68
2023/05/17 12:09:53;;;;;;;5.67;2.10;;;22.70;24.20;;;;;;5074921;28;20842;-67
2023/05/17 12:12:21;;;;;;;4.23;1.77;;;20.90;24.80;;;;;;5074838;28;20458;-68
2023/05/17 12:14:49;;;;;;;5.90;2.23;;;21.40;25.80;;;;;;5075267;28;20498;-68
2023/05/17 12:17:24;;;;;;;5.40;1.70;;;21.70;24.60;;;;;;5075206;28;20461;-68
2023/05/17 12:19:54;;;;;;;5.07;1.80;;;22.40;24.30;;;;;;5074911;28;20443;-68
2023/05/17 12:22:20;;;;;;;12.10;2.97;;;22.70;22.30;;;;;;5075171;28;20559;-68
2023/05/17 12:24:49;;;;;;;5.17;1.77;;;22.00;23.20;;;;;;5074534;28;20454;-68
2023/05/17 12:27:25;;;;;;;8.90;2.43;;;22.70;21.50;;;;;;5074759;28;20478;-67
2023/05/17 12:29:53;;;;;;;8.47;1.83;;;22.00;22.50;;;;;;5074662;28;20438;-67
2023/05/17 12:32:20;;;;;;;13.57;8.07;;;21.70;22.90;;;;;;5074334;28;20458;-67
2023/05/17 12:34:48;;;;;;;7.00;2.00;;;22.50;23.50;;;;;;5074922;28;20523;-68
2023/05/17 12:37:15;;;;;;;3.40;1.40;;;23.60;22.60;;;;;;5074648;28;20497;-68
2023/05/17 12:39:42;;;;;;;6.60;1.80;;;24.00;21.20;;;;;;5074126;28;20508;-67
2023/05/17 12:42:10;;;;;;;9.00;2.50;;;24.40;21.10;;;;;;5074599;28;20458;-67
2023/05/17 12:44:37;;;;;;;9.13;1.73;;;25.20;20.50;;;;;;5074581;28;20775;-68
2023/05/17 12:47:04;;;;;;;9.17;2.30;;;25.70;19.30;;;;;;5074310;28;20990;-68
2023/05/17 12:49:31;;;;;;;7.30;2.67;;;26.00;19.30;;;;;;5074487;28;20497;-68
2023/05/17 12:52:04;;;;;;;10.93;2.40;;;25.80;18.70;;;;;;5074413;28;20497;-68